sensor_id;sensor_type;location;lat;lon;timestamp;pressure;altitude;pressure_sealevel;temperature;humidity
5296;BME280;2670;42.720;23.336;2023-05-21T00:01:18;-22807.28;;;12.56;100.00
5296;BME280;2670;42.720;23.336;2023-05-21T00:03:44;-22807.16;;;12.56;100.00
5296;BME280;2670;42.720;23.336;2023-05-21T00:06:11;-22808.03;;;12.59;100.00
5296;BME280;2670;42.720;23.336;2023-05-21T00:08:39;-22807.16;;;12.56;100.00
5296;BME280;2670;42.720;23.336;2023-05-21T00:11:06;-22806.56;;;12.54;100.00
5296;BME280;2670;42.720;23.336;2023-05-21T00:13:34;-22807.44;;;12.57;100.00
5296;BME280;2670;42.720;23.336;2023-05-21T00:16:01;-22806.25;;;12.53;100.00
5296;BME280;2670;42.720;23.336;2023-05-21T00:18:27;-22808.34;;;12.60;100.00
5296;BME280;2670;42.720;23.336;2023-05-21T00:20:56;-22806.25;;;12.53;100.00
5296;BME280;2670;42.720;23.336;2023-05-21T00:23:23;-22803.59;;;12.43;100.00
5296;BME280;2670;42.720;23.336;2023-05-21T00:25:51;-22800.78;;;12.34;100.00
5296;BME280;2670;42.720;23.336;2023-05-21T00:28:17;-22800.66;;;12.33;100.00
5296;BME280;2670;42.720;23.336;2023-05-21T00:30:45;-22798.28;;;12.25;100.00
5296;BME280;2670;42.720;23.336;2023-05-21T00:33:12;-22797.84;;;12.24;100.00
5296;BME280;2670;42.720;23.336;2023-05-21T00:35:39;-22795.91;;;12.17;100.00
5296;BME280;2670;42.720;23.336;2023-05-21T00:38:05;-22795.19;;;12.14;100.00
5296;BME280;2670;42.720;23.336;2023-05-21T00:40:33;-22793.69;;;12.09;100.00
5296;BME280;2670;42.720;23.336;2023-05-21T00:43:00;-22795.91;;;12.17;100.00
5296;BME280;2670;42.720;23.336;2023-05-21T00:45:26;-22793.25;;;12.08;100.00
5296;BME280;2670;42.720;23.336;2023-05-21T00:47:55;-22791.91;;;12.03;100.00
5296;BME280;2670;42.720;23.336;2023-05-21T00:50:21;-22792.97;;;12.07;100.00
5296;BME280;2670;42.720;23.336;2023-05-21T00:52:48;-22789.13;;;11.93;100.00
5296;BME280;2670;42.720;23.336;2023-05-21T00:55:16;-22787.19;;;11.87;100.00
5296;BME280;2670;42.720;23.336;2023-05-21T00:57:42;-22786.75;;;11.85;100.00
5296;BME280;2670;42.720;23.336;2023-05-21T01:00:11;-22788.53;;;11.91;100.00
5296;BME280;2670;42.720;23.336;2023-05-21T01:02:40;-22787.78;;;11.89;100.00
5296;BME280;2670;42.720;23.336;2023-05-21T01:05:10;-22787.78;;;11.89;100.00
5296;BME280;2670;42.720;23.336;2023-05-21T01:07:39;-22787.63;;;11.88;100.00
5296;BME280;2670;42.720;23.336;2023-05-21T01:10:08;-22786.75;;;11.85;100.00
5296;BME280;2670;42.720;23.336;2023-05-21T01:12:37;-22787.50;;;11.88;100.00
5296;BME280;2670;42.720;23.336;2023-05-21T01:15:05;-22788.81;;;11.92;100.00
5296;BME280;2670;42.720;23.336;2023-05-21T01:17:32;-22789.13;;;11.93;100.00
5296;BME280;2670;42.720;23.336;2023-05-21T01:20:00;-22788.38;;;11.91;100.00
5296;BME280;2670;42.720;23.336;2023-05-21T01:22:34;-22789.56;;;11.95;100.00
5296;BME280;2670;42.720;23.336;2023-05-21T01:25:02;-22786.44;;;11.84;100.00
5296;BME280;2670;42.720;23.336;2023-05-21T01:27:29;-22787.78;;;11.89;100.00
5296;BME280;2670;42.720;23.336;2023-05-21T01:29:56;-22787.78;;;11.89;100.00
5296;BME280;2670;42.720;23.336;2023-05-21T01:32:26;-22787.34;;;11.87;100.00
5296;BME280;2670;42.720;23.336;2023-05-21T01:34:59;-22787.63;;;11.88;100.00
5296;BME280;2670;42.720;23.336;2023-05-21T01:37:30;-22788.53;;;11.91;100.00
5296;BME280;2670;42.720;23.336;2023-05-21T01:40:04;-22788.06;;;11.90;100.00
5296;BME280;2670;42.720;23.336;2023-05-21T01:42:35;-22787.19;;;11.87;100.00
5296;BME280;2670;42.720;23.336;2023-05-21T01:45:03;-22786.88;;;11.86;100.00
5296;BME280;2670;42.720;23.336;2023-05-21T01:47:32;-22786.44;;;11.84;100.00
5296;BME280;2670;42.720;23.336;2023-05-21T01:50:02;-22786.88;;;11.86;100.00
5296;BME280;2670;42.720;23.336;2023-05-21T01:52:28;-22785.84;;;11.82;100.00
5296;BME280;2670;42.720;23.336;2023-05-21T01:54:55;-22786.75;;;11.85;100.00
5296;BME280;2670;42.720;23.336;2023-05-21T01:57:23;-22788.97;;;11.93;100.00
5296;BME280;2670;42.720;23.336;2023-05-21T01:59:50;-22787.63;;;11.88;100.00
5296;BME280;2670;42.720;23.336;2023-05-21T02:02:18;-22787.50;;;11.88;100.00
5296;BME280;2670;42.720;23.336;2023-05-21T02:04:45;-22785.56;;;11.81;100.00
5296;BME280;2670;42.720;23.336;2023-05-21T02:07:12;-22782.91;;;11.72;100.00
5296;BME280;2670;42.720;23.336;2023-05-21T02:09:39;-22781.56;;;11.67;100.00
5296;BME280;2670;42.720;23.336;2023-05-21T02:12:07;-22781.72;;;11.68;100.00
5296;BME280;2670;42.720;23.336;2023-05-21T02:14:35;-22780.97;;;11.65;100.00
5296;BME280;2670;42.720;23.336;2023-05-21T02:17:02;-22782.75;;;11.71;100.00
5296;BME280;2670;42.720;23.336;2023-05-21T02:19:29;-22780.97;;;11.65;100.00
5296;BME280;2670;42.720;23.336;2023-05-21T02:21:56;-22781.28;;;11.66;100.00
5296;BME280;2670;42.720;23.336;2023-05-21T02:24:22;-22779.34;;;11.60;100.00
5296;BME280;2670;42.720;23.336;2023-05-21T02:26:49;-22778.91;;;11.58;100.00
5296;BME280;2670;42.720;23.336;2023-05-21T02:29:16;-22781.72;;;11.68;100.00
5296;BME280;2670;42.720;23.336;2023-05-21T02:31:44;-22779.06;;;11.59;100.00
5296;BME280;2670;42.720;23.336;2023-05-21T02:34:11;-22778.75;;;11.58;100.00
5296;BME280;2670;42.720;23.336;2023-05-21T02:36:38;-22779.50;;;11.60;100.00
5296;BME280;2670;42.720;23.336;2023-05-21T02:39:05;-22777.28;;;11.53;100.00
5296;BME280;2670;42.720;23.336;2023-05-21T02:41:32;-22775.94;;;11.48;100.00
5296;BME280;2670;42.720;23.336;2023-05-21T02:43:59;-22775.94;;;11.48;100.00
5296;BME280;2670;42.720;23.336;2023-05-21T02:46:25;-22776.81;;;11.51;100.00
5296;BME280;2670;42.720;23.336;2023-05-21T02:48:53;-22776.53;;;11.50;100.00
5296;BME280;2670;42.720;23.336;2023-05-21T02:51:20;-22773.56;;;11.40;100.00
5296;BME280;2670;42.720;23.336;2023-05-21T02:53:47;-22772.09;;;11.35;100.00
5296;BME280;2670;42.720;23.336;2023-05-21T02:56:14;-22770.31;;;11.29;100.00
5296;BME280;2670;42.720;23.336;2023-05-21T02:58:40;-22773.72;;;11.40;100.00
5296;BME280;2670;42.720;23.336;2023-05-21T03:01:07;-22769.88;;;11.27;100.00
5296;BME280;2670;42.720;23.336;2023-05-21T03:03:34;-22768.41;;;11.22;100.00
5296;BME280;2670;42.720;23.336;2023-05-21T03:06:02;-22768.41;;;11.22;100.00
5296;BME280;2670;42.720;23.336;2023-05-21T03:08:29;-22766.78;;;11.16;100.00
5296;BME280;2670;42.720;23.336;2023-05-21T03:10:56;-22764.09;;;11.07;100.00
5296;BME280;2670;42.720;23.336;2023-05-21T03:13:22;-22765.59;;;11.12;100.00
5296;BME280;2670;42.720;23.336;2023-05-21T03:15:50;-22767.22;;;11.18;100.00
5296;BME280;2670;42.720;23.336;2023-05-21T03:18:20;-22768.97;;;11.24;100.00
5296;BME280;2670;42.720;23.336;2023-05-21T03:20:47;-22767.50;;;11.19;100.00
5296;BME280;2670;42.720;23.336;2023-05-21T03:23:15;-22767.22;;;11.18;100.00
5296;BME280;2670;42.720;23.336;2023-05-21T03:25:42;-22770.31;;;11.29;100.00
5296;BME280;2670;42.720;23.336;2023-05-21T03:28:10;-22771.81;;;11.34;100.00
5296;BME280;2670;42.720;23.336;2023-05-21T03:30:36;-22770.63;;;11.30;100.00
5296;BME280;2670;42.720;23.336;2023-05-21T03:33:03;-22769.88;;;11.27;100.00
5296;BME280;2670;42.720;23.336;2023-05-21T03:35:30;-22769.88;;;11.27;100.00
5296;BME280;2670;42.720;23.336;2023-05-21T03:37:57;-22768.84;;;11.23;100.00
5296;BME280;2670;42.720;23.336;2023-05-21T03:40:25;-22769.28;;;11.25;100.00
5296;BME280;2670;42.720;23.336;2023-05-21T03:42:52;-22772.84;;;11.37;100.00
5296;BME280;2670;42.720;23.336;2023-05-21T03:45:18;-22770.75;;;11.30;100.00
5296;BME280;2670;42.720;23.336;2023-05-21T03:47:45;-22772.09;;;11.35;100.00
5296;BME280;2670;42.720;23.336;2023-05-21T03:50:13;-22770.47;;;11.29;100.00
5296;BME280;2670;42.720;23.336;2023-05-21T03:52:39;-22771.06;;;11.31;100.00
5296;BME280;2670;42.720;23.336;2023-05-21T03:55:07;-22773.88;;;11.41;100.00
5296;BME280;2670;42.720;23.336;2023-05-21T03:57:35;-22773.72;;;11.40;100.00
5296;BME280;2670;42.720;23.336;2023-05-21T04:00:03;-22772.97;;;11.38;100.00
5296;BME280;2670;42.720;23.336;2023-05-21T04:02:30;-22772.84;;;11.37;100.00
5296;BME280;2670;42.720;23.336;2023-05-21T04:04:57;-22771.19;;;11.32;100.00
5296;BME280;2670;42.720;23.336;2023-05-21T04:07:24;-22769.88;;;11.27;100.00
5296;BME280;2670;42.720;23.336;2023-05-21T04:09:51;-22771.94;;;11.34;100.00
5296;BME280;2670;42.720;23.336;2023-05-21T04:12:18;-22775.19;;;11.45;100.00
5296;BME280;2670;42.720;23.336;2023-05-21T04:14:47;-22773.88;;;11.41;100.00
5296;BME280;2670;42.720;23.336;2023-05-21T04:17:14;-22775.19;;;11.45;100.00
5296;BME280;2670;42.720;23.336;2023-05-21T04:19:40;-22778.44;;;11.57;100.00
5296;BME280;2670;42.720;23.336;2023-05-21T04:22:09;-22777.88;;;11.55;100.00
5296;BME280;2670;42.720;23.336;2023-05-21T04:24:35;-22777.56;;;11.54;100.00
5296;BME280;2670;42.720;23.336;2023-05-21T04:27:03;-22777.41;;;11.53;100.00
5296;BME280;2670;42.720;23.336;2023-05-21T04:29:31;-22781.84;;;11.68;100.00
5296;BME280;2670;42.720;23.336;2023-05-21T04:31:59;-22778.16;;;11.56;100.00
5296;BME280;2670;42.720;23.336;2023-05-21T04:34:25;-22778.44;;;11.57;100.00
5296;BME280;2670;42.720;23.336;2023-05-21T04:36:52;-22784.53;;;11.78;100.00
5296;BME280;2670;42.720;23.336;2023-05-21T04:39:19;-22786.75;;;11.85;100.00
5296;BME280;2670;42.720;23.336;2023-05-21T04:41:45;-22782.31;;;11.70;100.00
5296;BME280;2670;42.720;23.336;2023-05-21T04:44:12;-22785.13;;;11.80;100.00
5296;BME280;2670;42.720;23.336;2023-05-21T04:46:42;-22782.44;;;11.70;100.00
5296;BME280;2670;42.720;23.336;2023-05-21T04:49:11;-22788.66;;;11.92;100.00
5296;BME280;2670;42.720;23.336;2023-05-21T04:51:38;-22787.63;;;11.88;100.00
5296;BME280;2670;42.720;23.336;2023-05-21T04:54:05;-22786.75;;;11.85;100.00
5296;BME280;2670;42.720;23.336;2023-05-21T04:56:32;-22784.22;;;11.77;100.00
5296;BME280;2670;42.720;23.336;2023-05-21T04:58:59;-22784.38;;;11.77;100.00
5296;BME280;2670;42.720;23.336;2023-05-21T05:01:25;-22787.78;;;11.89;100.00
5296;BME280;2670;42.720;23.336;2023-05-21T05:03:53;-22786.75;;;11.85;100.00
5296;BME280;2670;42.720;23.336;2023-05-21T05:06:21;-22787.94;;;11.89;100.00
5296;BME280;2670;42.720;23.336;2023-05-21T05:08:50;-22792.22;;;12.04;100.00
5296;BME280;2670;42.720;23.336;2023-05-21T05:11:17;-22792.50;;;12.05;100.00
5296;BME280;2670;42.720;23.336;2023-05-21T05:13:43;-22795.03;;;12.14;100.00
5296;BME280;2670;42.720;23.336;2023-05-21T05:16:10;-22797.41;;;12.22;100.00
5296;BME280;2670;42.720;23.336;2023-05-21T05:18:37;-22797.97;;;12.24;100.00
5296;BME280;2670;42.720;23.336;2023-05-21T05:21:03;-22801.09;;;12.35;100.00
5296;BME280;2670;42.720;23.336;2023-05-21T05:23:31;-22797.84;;;12.24;100.00
5296;BME280;2670;42.720;23.336;2023-05-21T05:25:58;-22801.81;;;12.37;100.00
5296;BME280;2670;42.720;23.336;2023-05-21T05:28:25;-22805.81;;;12.51;100.00
5296;BME280;2670;42.720;23.336;2023-05-21T05:30:52;-22807.44;;;12.57;100.00
5296;BME280;2670;42.720;23.336;2023-05-21T05:33:19;-22808.47;;;12.60;100.00
5296;BME280;2670;42.720;23.336;2023-05-21T05:35:46;-22809.81;;;12.65;100.00
5296;BME280;2670;42.720;23.336;2023-05-21T05:38:12;-22811.44;;;12.70;100.00
5296;BME280;2670;42.720;23.336;2023-05-21T05:40:40;-22813.94;;;12.79;100.00
5296;BME280;2670;42.720;23.336;2023-05-21T05:43:07;-22813.34;;;12.77;100.00
5296;BME280;2670;42.720;23.336;2023-05-21T05:45:34;-22811.28;;;12.70;100.00
5296;BME280;2670;42.720;23.336;2023-05-21T05:48:01;-22815.28;;;12.84;100.00
5296;BME280;2670;42.720;23.336;2023-05-21T05:50:27;-22816.47;;;12.88;100.00
5296;BME280;2670;42.720;23.336;2023-05-21T05:52:54;-22815.56;;;12.85;100.00
5296;BME280;2670;42.720;23.336;2023-05-21T05:55:21;-22817.78;;;12.92;100.00
5296;BME280;2670;42.720;23.336;2023-05-21T05:57:50;-22819.41;;;12.98;100.00
5296;BME280;2670;42.720;23.336;2023-05-21T06:00:17;-22822.06;;;13.07;100.00
5296;BME280;2670;42.720;23.336;2023-05-21T06:02:44;-22826.94;;;13.24;100.00
5296;BME280;2670;42.720;23.336;2023-05-21T06:05:12;-22822.81;;;13.10;100.00
5296;BME280;2670;42.720;23.336;2023-05-21T06:07:39;-22827.25;;;13.25;100.00
5296;BME280;2670;42.720;23.336;2023-05-21T06:10:07;-22828.72;;;13.30;100.00
5296;BME280;2670;42.720;23.336;2023-05-21T06:12:34;-22827.97;;;13.28;100.00
5296;BME280;2670;42.720;23.336;2023-05-21T06:15:02;-22831.66;;;13.40;100.00
5296;BME280;2670;42.720;23.336;2023-05-21T06:17:29;-22830.94;;;13.38;100.00
5296;BME280;2670;42.720;23.336;2023-05-21T06:19:56;-22831.97;;;13.41;100.00
5296;BME280;2670;42.720;23.336;2023-05-21T06:22:22;-22835.34;;;13.53;100.00
5296;BME280;2670;42.720;23.336;2023-05-21T06:24:49;-22837.44;;;13.60;100.00
5296;BME280;2670;42.720;23.336;2023-05-21T06:27:16;-22842.44;;;13.78;100.00
5296;BME280;2670;42.720;23.336;2023-05-21T06:29:43;-22846.13;;;13.90;100.00
5296;BME280;2670;42.720;23.336;2023-05-21T06:32:11;-22853.06;;;14.14;100.00
5296;BME280;2670;42.720;23.336;2023-05-21T06:34:37;-22851.88;;;14.10;100.00
5296;BME280;2670;42.720;23.336;2023-05-21T06:37:04;-22851.44;;;14.09;100.00
5296;BME280;2670;42.720;23.336;2023-05-21T06:39:31;-22854.25;;;14.18;100.00
5296;BME280;2670;42.720;23.336;2023-05-21T06:41:57;-22856.75;;;14.27;100.00
5296;BME280;2670;42.720;23.336;2023-05-21T06:44:24;-22854.53;;;14.19;100.00
5296;BME280;2670;42.720;23.336;2023-05-21T06:46:51;-22856.59;;;14.27;100.00
5296;BME280;2670;42.720;23.336;2023-05-21T06:49:19;-22858.81;;;14.34;100.00
5296;BME280;2670;42.720;23.336;2023-05-21T06:51:46;-22860.59;;;14.40;100.00
5296;BME280;2670;42.720;23.336;2023-05-21T06:54:12;-22858.09;;;14.32;100.00
5296;BME280;2670;42.720;23.336;2023-05-21T06:56:39;-22859.13;;;14.35;100.00
5296;BME280;2670;42.720;23.336;2023-05-21T06:59:06;-22860.59;;;14.40;100.00
5296;BME280;2670;42.720;23.336;2023-05-21T07:01:33;-22864.13;;;14.53;100.00
5296;BME280;2670;42.720;23.336;2023-05-21T07:03:59;-22865.59;;;14.58;100.00
5296;BME280;2670;42.720;23.336;2023-05-21T07:06:27;-22867.81;;;14.65;100.00
5296;BME280;2670;42.720;23.336;2023-05-21T07:08:54;-22871.06;;;14.77;100.00
5296;BME280;2670;42.720;23.336;2023-05-21T07:11:21;-22873.72;;;14.86;100.00
5296;BME280;2670;42.720;23.336;2023-05-21T07:13:49;-22877.41;;;14.99;100.00
5296;BME280;2670;42.720;23.336;2023-05-21T07:16:16;-22877.41;;;14.99;100.00
5296;BME280;2670;42.720;23.336;2023-05-21T07:18:43;-22877.53;;;14.99;100.00
5296;BME280;2670;42.720;23.336;2023-05-21T07:21:10;-22881.22;;;15.12;100.00
5296;BME280;2670;42.720;23.336;2023-05-21T07:23:38;-22885.78;;;15.28;100.00
5296;BME280;2670;42.720;23.336;2023-05-21T07:26:05;-22887.13;;;15.32;100.00
5296;BME280;2670;42.720;23.336;2023-05-21T07:28:31;-22891.25;;;15.47;100.00
5296;BME280;2670;42.720;23.336;2023-05-21T07:30:58;-22892.56;;;15.51;100.00
5296;BME280;2670;42.720;23.336;2023-05-21T07:33:25;-22897.72;;;15.69;100.00
5296;BME280;2670;42.720;23.336;2023-05-21T07:35:52;-22901.41;;;15.82;100.00
5296;BME280;2670;42.720;23.336;2023-05-21T07:38:19;-22902.44;;;15.85;100.00
5296;BME280;2670;42.720;23.336;2023-05-21T07:40:47;-22905.66;;;15.97;100.00
5296;BME280;2670;42.720;23.336;2023-05-21T07:43:13;-22907.44;;;16.03;100.00
5296;BME280;2670;42.720;23.336;2023-05-21T07:45:40;-22908.47;;;16.06;100.00
5296;BME280;2670;42.720;23.336;2023-05-21T07:48:07;-22910.22;;;16.12;100.00
5296;BME280;2670;42.720;23.336;2023-05-21T07:50:33;-22912.72;;;16.21;100.00
5296;BME280;2670;42.720;23.336;2023-05-21T07:53:01;-22912.44;;;16.20;99.22
5296;BME280;2670;42.720;23.336;2023-05-21T07:55:28;-22912.44;;;16.20;100.00
5296;BME280;2670;42.720;23.336;2023-05-21T07:57:56;-22916.56;;;16.34;100.00
5296;BME280;2670;42.720;23.336;2023-05-21T08:00:24;-22918.75;;;16.42;99.57
5296;BME280;2670;42.720;23.336;2023-05-21T08:02:50;-22923.91;;;16.60;100.00
5296;BME280;2670;42.720;23.336;2023-05-21T08:05:17;-22926.41;;;16.68;100.00
5296;BME280;2670;42.720;23.336;2023-05-21T08:07:45;-22934.81;;;16.98;94.27
5296;BME280;2670;42.720;23.336;2023-05-21T08:10:12;-22939.66;;;17.14;94.26
5296;BME280;2670;42.720;23.336;2023-05-21T08:12:39;-22940.69;;;17.18;86.43
5296;BME280;2670;42.720;23.336;2023-05-21T08:15:07;-22947.13;;;17.40;84.64
5296;BME280;2670;42.720;23.336;2023-05-21T08:17:34;-22949.94;;;17.50;91.83
5296;BME280;2670;42.720;23.336;2023-05-21T08:20:01;-22951.56;;;17.56;81.99
5296;BME280;2670;42.720;23.336;2023-05-21T08:22:29;-22957.28;;;17.76;81.63
5296;BME280;2670;42.720;23.336;2023-05-21T08:24:55;-22960.22;;;17.86;78.19
5296;BME280;2670;42.720;23.336;2023-05-21T08:27:22;-22960.94;;;17.88;77.71
5296;BME280;2670;42.720;23.336;2023-05-21T08:29:49;-22960.22;;;17.86;75.22
5296;BME280;2670;42.720;23.336;2023-05-21T08:32:18;-22958.31;;;17.79;72.40
5296;BME280;2670;42.720;23.336;2023-05-21T08:34:44;-22958.59;;;17.80;74.07
5296;BME280;2670;42.720;23.336;2023-05-21T08:37:11;-22960.66;;;17.87;75.15
5296;BME280;2670;42.720;23.336;2023-05-21T08:39:38;-22962.84;;;17.95;71.97
5296;BME280;2670;42.720;23.336;2023-05-21T08:42:10;-22961.09;;;17.89;71.87
5296;BME280;2670;42.720;23.336;2023-05-21T08:44:42;-22956.97;;;17.75;68.34
5296;BME280;2670;42.720;23.336;2023-05-21T08:47:13;-22954.78;;;17.67;70.98
5296;BME280;2670;42.720;23.336;2023-05-21T08:49:43;-22954.19;;;17.65;71.08
5296;BME280;2670;42.720;23.336;2023-05-21T08:52:12;-22959.78;;;17.84;70.79
5296;BME280;2670;42.720;23.336;2023-05-21T08:54:39;-22965.50;;;18.04;73.95
5296;BME280;2670;42.720;23.336;2023-05-21T08:57:07;-22971.66;;;18.26;68.66
5296;BME280;2670;42.720;23.336;2023-05-21T08:59:35;-22975.47;;;18.39;65.37
5296;BME280;2670;42.720;23.336;2023-05-21T09:02:04;-22977.38;;;18.46;65.32
5296;BME280;2670;42.720;23.336;2023-05-21T09:04:33;-22979.72;;;18.54;68.25
5296;BME280;2670;42.720;23.336;2023-05-21T09:07:02;-22982.06;;;18.62;68.94
5296;BME280;2670;42.720;23.336;2023-05-21T09:09:32;-22983.41;;;18.66;68.00
5296;BME280;2670;42.720;23.336;2023-05-21T09:11:59;-22986.91;;;18.79;68.12
5296;BME280;2670;42.720;23.336;2023-05-21T09:14:26;-22991.31;;;18.94;68.20
5296;BME280;2670;42.720;23.336;2023-05-21T09:16:53;-22993.53;;;19.02;65.61
5296;BME280;2670;42.720;23.336;2023-05-21T09:19:20;-22994.69;;;19.06;64.94
5296;BME280;2670;42.720;23.336;2023-05-21T09:21:49;-22994.53;;;19.05;64.51
5296;BME280;2670;42.720;23.336;2023-05-21T09:24:20;-22998.50;;;19.19;64.94
5296;BME280;2670;42.720;23.336;2023-05-21T09:26:46;-23002.47;;;19.33;67.08
5296;BME280;2670;42.720;23.336;2023-05-21T09:29:13;-23002.03;;;19.31;67.27
5296;BME280;2670;42.720;23.336;2023-05-21T09:31:42;-23006.28;;;19.46;67.42
5296;BME280;2670;42.720;23.336;2023-05-21T09:34:09;-23005.97;;;19.45;66.78
5296;BME280;2670;42.720;23.336;2023-05-21T09:36:36;-23010.22;;;19.60;68.77
5296;BME280;2670;42.720;23.336;2023-05-21T09:39:03;-23014.91;;;19.76;65.04
5296;BME280;2670;42.720;23.336;2023-05-21T09:41:32;-23015.94;;;19.80;63.31
5296;BME280;2670;42.720;23.336;2023-05-21T09:44:00;-23017.25;;;19.84;67.55
5296;BME280;2670;42.720;23.336;2023-05-21T09:46:36;-23019.16;;;19.91;61.99
5296;BME280;2670;42.720;23.336;2023-05-21T09:49:03;-23020.78;;;19.97;61.56
5296;BME280;2670;42.720;23.336;2023-05-21T09:51:29;-23022.22;;;20.02;66.86
5296;BME280;2670;42.720;23.336;2023-05-21T09:53:57;-23022.38;;;20.02;59.84
5296;BME280;2670;42.720;23.336;2023-05-21T09:56:25;-23012.28;;;19.67;59.20
5296;BME280;2670;42.720;23.336;2023-05-21T09:58:55;-23013.75;;;19.72;59.77
5296;BME280;2670;42.720;23.336;2023-05-21T10:01:23;-23015.78;;;19.79;61.53
5296;BME280;2670;42.720;23.336;2023-05-21T10:03:53;-23021.34;;;19.99;63.45
5296;BME280;2670;42.720;23.336;2023-05-21T10:06:23;-23022.81;;;20.04;58.86
5296;BME280;2670;42.720;23.336;2023-05-21T10:08:53;-23025.16;;;20.12;61.03
5296;BME280;2670;42.720;23.336;2023-05-21T10:11:21;-23026.91;;;20.18;61.96
5296;BME280;2670;42.720;23.336;2023-05-21T10:13:53;-23029.69;;;20.28;62.73
5296;BME280;2670;42.720;23.336;2023-05-21T10:16:22;-23033.34;;;20.40;62.70
5296;BME280;2670;42.720;23.336;2023-05-21T10:18:50;-23032.03;;;20.36;56.24
5296;BME280;2670;42.720;23.336;2023-05-21T10:21:18;-23027.66;;;20.21;57.48
5296;BME280;2670;42.720;23.336;2023-05-21T10:23:47;-23021.66;;;20.00;57.75
5296;BME280;2670;42.720;23.336;2023-05-21T10:26:14;-23021.06;;;19.98;59.57
5296;BME280;2670;42.720;23.336;2023-05-21T10:28:42;-23023.41;;;20.06;59.61
5296;BME280;2670;42.720;23.336;2023-05-21T10:31:10;-23021.34;;;19.99;58.13
5296;BME280;2670;42.720;23.336;2023-05-21T10:33:40;-23023.69;;;20.07;60.43
5296;BME280;2670;42.720;23.336;2023-05-21T10:36:07;-23025.75;;;20.14;58.55
5296;BME280;2670;42.720;23.336;2023-05-21T10:38:35;-23025.59;;;20.13;57.63
5296;BME280;2670;42.720;23.336;2023-05-21T10:41:03;-23021.78;;;20.00;61.01
5296;BME280;2670;42.720;23.336;2023-05-21T10:43:44;-23021.06;;;19.98;60.13
5296;BME280;2670;42.720;23.336;2023-05-21T10:46:25;-23018.28;;;19.88;60.35
5296;BME280;2670;42.720;23.336;2023-05-21T10:49:10;-23022.09;;;20.01;57.10
5296;BME280;2670;42.720;23.336;2023-05-21T10:51:48;-23018.72;;;19.89;57.33
5296;BME280;2670;42.720;23.336;2023-05-21T10:54:37;-23017.53;;;19.85;60.80
5296;BME280;2670;42.720;23.336;2023-05-21T10:57:15;-23013.75;;;19.72;61.79
5296;BME280;2670;42.720;23.336;2023-05-21T10:59:45;-23013.16;;;19.70;61.56
5296;BME280;2670;42.720;23.336;2023-05-21T11:02:14;-23012.13;;;19.67;61.28
5296;BME280;2670;42.720;23.336;2023-05-21T11:04:43;-23012.28;;;19.67;61.84
5296;BME280;2670;42.720;23.336;2023-05-21T11:07:14;-23009.34;;;19.57;62.44
5296;BME280;2670;42.720;23.336;2023-05-21T11:09:40;-23009.06;;;19.56;62.17
5296;BME280;2670;42.720;23.336;2023-05-21T11:12:07;-23003.50;;;19.36;62.30
5296;BME280;2670;42.720;23.336;2023-05-21T11:14:35;-23000.69;;;19.27;62.08
5296;BME280;2670;42.720;23.336;2023-05-21T11:17:09;-23000.56;;;19.26;63.09
5296;BME280;2670;42.720;23.336;2023-05-21T11:19:38;-22999.53;;;19.23;62.88
5296;BME280;2670;42.720;23.336;2023-05-21T11:22:08;-22997.34;;;19.15;62.81
5296;BME280;2670;42.720;23.336;2023-05-21T11:24:40;-23001.28;;;19.29;62.68
5296;BME280;2670;42.720;23.336;2023-05-21T11:27:06;-23002.75;;;19.34;62.10
5296;BME280;2670;42.720;23.336;2023-05-21T11:29:51;-23004.38;;;19.39;61.98
5296;BME280;2670;42.720;23.336;2023-05-21T11:32:20;-23003.78;;;19.37;62.96
5296;BME280;2670;42.720;23.336;2023-05-21T11:34:48;-23001.28;;;19.29;63.22
5296;BME280;2670;42.720;23.336;2023-05-21T11:37:25;-22997.19;;;19.14;64.36
5296;BME280;2670;42.720;23.336;2023-05-21T11:39:53;-22992.94;;;19.00;61.56
5296;BME280;2670;42.720;23.336;2023-05-21T11:42:29;-22992.06;;;18.97;63.09
5296;BME280;2670;42.720;23.336;2023-05-21T11:44:57;-22991.47;;;18.95;61.95
5296;BME280;2670;42.720;23.336;2023-05-21T11:47:26;-22992.50;;;18.98;63.94
5296;BME280;2670;42.720;23.336;2023-05-21T11:49:53;-22992.19;;;18.97;64.61
5296;BME280;2670;42.720;23.336;2023-05-21T11:52:22;-22990.88;;;18.92;63.95
5296;BME280;2670;42.720;23.336;2023-05-21T11:54:50;-22989.84;;;18.89;65.81
5296;BME280;2670;42.720;23.336;2023-05-21T11:57:19;-22988.25;;;18.83;65.49
5296;BME280;2670;42.720;23.336;2023-05-21T11:59:48;-22987.34;;;18.80;65.38
5296;BME280;2670;42.720;23.336;2023-05-21T12:02:16;-22985.31;;;18.73;65.81
5296;BME280;2670;42.720;23.336;2023-05-21T12:04:45;-22979.16;;;18.52;67.36
5296;BME280;2670;42.720;23.336;2023-05-21T12:07:13;-22977.81;;;18.47;69.16
5296;BME280;2670;42.720;23.336;2023-05-21T12:09:42;-22977.38;;;18.46;68.59
5296;BME280;2670;42.720;23.336;2023-05-21T12:12:10;-22974.75;;;18.36;69.23
5296;BME280;2670;42.720;23.336;2023-05-21T12:14:38;-22972.09;;;18.27;69.00
5296;BME280;2670;42.720;23.336;2023-05-21T12:17:05;-22971.22;;;18.24;70.10
5296;BME280;2670;42.720;23.336;2023-05-21T12:19:35;-22970.19;;;18.21;69.80
5296;BME280;2670;42.720;23.336;2023-05-21T12:22:02;-22967.56;;;18.11;69.83
5296;BME280;2670;42.720;23.336;2023-05-21T12:24:29;-22969.03;;;18.16;69.73
5296;BME280;2670;42.720;23.336;2023-05-21T12:26:58;-22969.03;;;18.16;69.64
5296;BME280;2670;42.720;23.336;2023-05-21T12:29:26;-22969.31;;;18.17;70.47
5296;BME280;2670;42.720;23.336;2023-05-21T12:31:53;-22970.94;;;18.23;72.11
5296;BME280;2670;42.720;23.336;2023-05-21T12:34:39;-22969.63;;;18.19;72.09
5296;BME280;2670;42.720;23.336;2023-05-21T12:37:07;-22970.19;;;18.21;72.40
5296;BME280;2670;42.720;23.336;2023-05-21T12:39:41;-22970.06;;;18.20;71.28
5296;BME280;2670;42.720;23.336;2023-05-21T12:42:10;-22969.47;;;18.18;72.27
5296;BME280;2670;42.720;23.336;2023-05-21T12:44:38;-22968.88;;;18.16;71.32
5296;BME280;2670;42.720;23.336;2023-05-21T12:47:05;-22972.97;;;18.30;70.35
5296;BME280;2670;42.720;23.336;2023-05-21T12:49:33;-22971.38;;;18.25;70.86
5296;BME280;2670;42.720;23.336;2023-05-21T12:52:04;-22970.34;;;18.21;70.92
5296;BME280;2670;42.720;23.336;2023-05-21T12:54:35;-22971.97;;;18.27;71.01
5296;BME280;2670;42.720;23.336;2023-05-21T12:57:06;-22969.75;;;18.19;72.62